Time;durP1;ratioP1;P1;durP2;ratioP2;P2;SDS_P1;SDS_P2;PMS_P1;PMS_P2;Temp;Humidity;BMP_temperature;BMP_pressure;BME280_temperature;BME280_humidity;BME280_pressure;Samples;Min_cycle;Max_cycle;Signal;HPM_P1;HPM_P2
2020/12/30 00:02:25;;;;;;;7.57;4.70;;;;;;;3.91;76.11;97033.16;5013394;28;20041;-63
2020/12/30 00:04:51;;;;;;;5.57;4.27;;;;;;;3.91;76.16;97043.28;5008247;28;20029;-63
2020/12/30 00:07:17;;;;;;;6.13;4.10;;;;;;;3.90;75.99;97044.19;5005006;28;20037;-63
2020/12/30 00:09:42;;;;;;;6.63;4.47;;;;;;;3.78;76.56;97032.53;5009801;28;20101;-63
2020/12/30 00:12:07;;;;;;;8.00;5.20;;;;;;;3.64;76.50;97029.44;5003109;28;20335;-63
2020/12/30 00:14:33;;;;;;;6.30;4.13;;;;;;;3.57;77.27;97031.22;5012493;28;20045;-63
2020/12/30 00:16:58;;;;;;;5.13;3.73;;;;;;;3.54;76.98;97040.56;5012884;28;20100;-63
2020/12/30 00:19:23;;;;;;;5.60;3.50;;;;;;;3.44;77.60;97031.44;5013111;28;20089;-63
2020/12/30 00:21:49;;;;;;;5.77;4.00;;;;;;;3.43;77.34;97038.25;5012554;28;20030;-63
2020/12/30 00:24:14;;;;;;;4.93;4.13;;;;;;;3.40;77.29;97048.41;5012614;28;20021;-63
2020/12/30 00:26:40;;;;;;;7.07;4.40;;;;;;;3.42;77.08;97045.84;4999627;28;20031;-63
2020/12/30 00:29:05;;;;;;;5.20;3.80;;;;;;;3.40;77.10;97053.47;5013209;28;20032;-63
2020/12/30 00:31:30;;;;;;;7.17;4.30;;;;;;;3.35;77.45;97059.47;5012506;28;20044;-63
2020/12/30 00:33:56;;;;;;;6.13;3.63;;;;;;;3.34;77.27;97056.13;4999814;28;20482;-63
2020/12/30 00:36:22;;;;;;;7.50;4.00;;;;;;;3.28;77.41;97053.66;5012754;28;20030;-63
2020/12/30 00:38:48;;;;;;;6.40;3.70;;;;;;;3.30;77.46;97049.44;5012380;28;20055;-63
2020/12/30 00:41:14;;;;;;;6.47;3.87;;;;;;;3.27;77.71;97051.19;5006507;28;20112;-63
2020/12/30 00:43:41;;;;;;;5.70;3.70;;;;;;;3.30;77.43;97046.06;5008779;28;20030;-63
2020/12/30 00:46:16;;;;;;;4.73;4.23;;;;;;;3.33;77.48;97041.78;5012989;28;20026;-63
2020/12/30 00:48:42;;;;;;;;;;;;;;;3.32;77.61;97041.78;5013889;28;20038;-63
2020/12/30 00:51:12;;;;;;;5.40;3.80;;;;;;;3.27;77.97;97053.72;5011866;28;19909;-63
2020/12/30 00:53:38;;;;;;;8.33;5.17;;;;;;;2.98;78.99;97060.03;5013277;28;20037;-63
2020/12/30 00:56:09;;;;;;;6.57;4.60;;;;;;;2.90;79.18;97050.88;5005108;28;20029;-63
2020/12/30 00:58:35;;;;;;;7.17;4.60;;;;;;;2.87;79.26;97043.31;5005810;28;20335;-62
2020/12/30 01:01:05;;;;;;;6.07;4.60;;;;;;;2.95;79.54;97046.59;4991969;28;20452;-63
2020/12/30 01:03:32;;;;;;;5.13;3.87;;;;;;;2.95;78.92;97052.47;4991177;28;20049;-62
2020/12/30 01:05:57;;;;;;;5.80;4.30;;;;;;;2.96;79.05;97056.69;4992537;28;20041;-62
2020/12/30 01:08:26;;;;;;;6.33;4.13;;;;;;;2.93;78.32;97060.97;4993076;28;20030;-62
2020/12/30 01:10:52;;;;;;;5.00;4.13;;;;;;;2.86;78.93;97064.41;5004914;28;20057;-63
2020/12/30 01:13:17;;;;;;;5.17;3.53;;;;;;;2.88;78.29;97072.84;5012361;28;20122;-63
2020/12/30 01:15:43;;;;;;;5.70;3.60;;;;;;;2.85;77.88;97068.66;5011268;28;20022;-63
2020/12/30 01:18:08;;;;;;;6.03;4.80;;;;;;;2.86;78.16;97059.38;5012399;28;20053;-63
2020/12/30 01:20:34;;;;;;;5.00;4.10;;;;;;;2.80;78.30;97055.22;5002850;28;20022;-63
2020/12/30 01:22:59;;;;;;;5.50;4.53;;;;;;;2.75;79.23;97062.91;4992304;28;20026;-63
2020/12/30 01:25:25;;;;;;;6.73;4.77;;;;;;;2.70;78.95;97062.13;4998747;28;20037;-63
2020/12/30 01:27:51;;;;;;;5.97;4.80;;;;;;;2.68;79.06;97068.03;5012389;28;20046;-62
2020/12/30 01:30:16;;;;;;;5.67;4.53;;;;;;;2.72;79.35;97074.72;5005646;28;20029;-62
2020/12/30 01:32:42;;;;;;;7.03;4.30;;;;;;;2.71;79.66;97083.19;4992787;28;20104;-62
2020/12/30 01:35:07;;;;;;;5.87;4.10;;;;;;;2.67;79.04;97084.09;4991848;28;20030;-62
2020/12/30 01:37:33;;;;;;;7.17;5.20;;;;;;;2.59;79.36;97081.63;4993093;28;20485;-62
2020/12/30 01:39:58;;;;;;;8.03;5.43;;;;;;;2.58;79.92;97064.81;4992841;28;20080;-62
2020/12/30 01:42:24;;;;;;;9.10;5.73;;;;;;;2.68;79.79;97061.28;4993345;28;20450;-62
2020/12/30 01:44:49;;;;;;;8.27;5.57;;;;;;;2.69;79.83;97062.13;5020170;28;20026;-62
2020/12/30 01:47:16;;;;;;;4.90;3.60;;;;;;;2.74;79.39;97067.97;5019793;28;20050;-62
2020/12/30 01:49:42;;;;;;;6.30;4.33;;;;;;;2.82;78.59;97068.69;5016397;28;20068;-62
2020/12/30 01:52:07;;;;;;;4.73;3.27;;;;;;;2.78;78.01;97077.19;5014442;28;20026;-62
2020/12/30 01:54:32;;;;;;;6.63;3.73;;;;;;;2.57;78.96;97070.72;4995191;28;20026;-62
2020/12/30 01:56:58;;;;;;;4.10;2.80;;;;;;;2.59;79.18;97073.25;4991790;28;20105;-63
2020/12/30 01:59:23;;;;;;;4.10;3.07;;;;;;;2.65;79.38;97075.66;5006757;28;20033;-62
2020/12/30 02:02:03;;;;;;;5.93;3.00;;;;;;;2.62;80.04;97073.19;5011692;28;20454;-62
2020/12/30 02:04:52;;;;;;;3.97;2.83;;;;;;;2.66;79.72;97065.53;5011532;28;20022;-62
2020/12/30 02:07:18;;;;;;;3.60;3.13;;;;;;;2.55;79.75;97069.03;5011200;28;20034;-63
2020/12/30 02:09:44;;;;;;;4.00;3.20;;;;;;;2.53;80.15;97064.03;5010865;28;20030;-63
2020/12/30 02:12:11;;;;;;;4.40;2.87;;;;;;;2.59;80.58;97065.66;5011757;28;20033;-63
2020/12/30 02:14:37;;;;;;;2.87;2.03;;;;;;;2.52;80.55;97057.28;5010366;28;20113;-62
2020/12/30 02:17:02;;;;;;;3.87;2.80;;;;;;;2.48;81.04;97055.66;5011480;28;20515;-62
2020/12/30 02:19:28;;;;;;;5.00;3.50;;;;;;;2.43;81.48;97061.63;5010665;28;20057;-62
2020/12/30 02:21:58;;;;;;;8.13;4.30;;;;;;;2.45;81.59;97055.69;5011382;28;20044;-63
2020/12/30 02:24:28;;;;;;;15.83;6.00;;;;;;;2.48;81.77;97068.31;5010729;28;20064;-62
2020/12/30 02:26:55;;;;;;;13.70;5.23;;;;;;;2.43;81.22;97064.97;5011402;28;20029;-62
2020/12/30 02:29:21;;;;;;;10.77;6.00;;;;;;;2.38;81.45;97066.72;5008926;28;20017;-63
2020/12/30 02:31:46;;;;;;;10.50;4.90;;;;;;;2.36;81.82;97065.94;5011814;28;20052;-62
2020/12/30 02:34:12;;;;;;;9.70;5.50;;;;;;;2.32;80.98;97063.44;5003783;28;20439;-62
2020/12/30 02:36:37;;;;;;;13.17;6.17;;;;;;;2.30;81.14;97063.44;4991746;28;20030;-62
2020/12/30 02:39:03;;;;;;;6.27;4.17;;;;;;;2.33;80.69;97068.50;4992226;28;20091;-62
2020/12/30 02:41:29;;;;;;;8.10;4.20;;;;;;;2.27;80.64;97069.41;5011733;28;20381;-62
2020/12/30 02:43:54;;;;;;;5.80;4.03;;;;;;;2.22;80.91;97086.31;5009376;28;20079;-62
2020/12/30 02:46:19;;;;;;;7.47;3.80;;;;;;;2.22;81.08;97091.34;5011668;28;20079;-62
2020/12/30 02:48:45;;;;;;;4.83;3.10;;;;;;;2.30;80.19;97086.22;5010545;28;20034;-62
2020/12/30 02:51:10;;;;;;;4.97;3.07;;;;;;;2.37;79.20;97082.78;5011060;28;20033;-62
2020/12/30 02:53:36;;;;;;;5.17;3.00;;;;;;;2.45;78.91;97083.53;5010349;28;20507;-62
2020/12/30 02:56:01;;;;;;;5.30;3.10;;;;;;;2.34;79.03;97074.38;4995306;28;20504;-61
2020/12/30 02:58:27;;;;;;;3.50;2.63;;;;;;;2.35;78.96;97068.47;4991118;28;20030;-62
2020/12/30 03:00:52;;;;;;;4.33;2.70;;;;;;;2.38;79.30;97063.38;4990940;28;20030;-62
2020/12/30 03:03:18;;;;;;;4.80;3.27;;;;;;;2.35;78.91;97066.78;4990244;28;20091;-62
2020/12/30 03:05:43;;;;;;;3.63;2.60;;;;;;;2.37;78.31;97074.34;4990810;28;20080;-61
2020/12/30 03:08:09;;;;;;;4.23;2.60;;;;;;;2.34;78.76;97082.78;4994682;28;20105;-62
2020/12/30 03:10:34;;;;;;;4.80;3.03;;;;;;;2.28;78.99;97085.41;5002543;28;20030;-61
2020/12/30 03:13:00;;;;;;;4.63;2.80;;;;;;;2.32;79.04;97084.50;5014203;28;20029;-61
2020/12/30 03:15:25;;;;;;;8.00;3.00;;;;;;;2.49;78.33;97076.72;5005994;28;20038;-61
2020/12/30 03:17:50;;;;;;;4.80;3.23;;;;;;;2.42;78.64;97086.06;4994310;28;20045;-61
2020/12/30 03:20:16;;;;;;;3.40;2.40;;;;;;;2.47;78.48;97096.13;4997869;28;20458;-61
2020/12/30 03:22:41;;;;;;;8.03;3.83;;;;;;;2.46;79.05;97102.06;4994767;28;20040;-61
2020/12/30 03:25:07;;;;;;;7.67;5.20;;;;;;;2.41;79.41;97104.63;4996929;28;20026;-61
2020/12/30 03:27:32;;;;;;;8.03;4.97;;;;;;;2.36;79.79;97113.13;5013544;28;20053;-62
2020/12/30 03:29:58;;;;;;;6.80;4.23;;;;;;;2.30;80.27;97114.88;5011719;28;20026;-62
2020/12/30 03:32:23;;;;;;;5.60;4.20;;;;;;;2.23;80.91;97114.94;5009135;28;20113;-62
2020/12/30 03:34:48;;;;;;;6.70;3.60;;;;;;;2.23;80.80;97112.41;5013435;28;20030;-61
2020/12/30 03:37:14;;;;;;;5.13;3.80;;;;;;;2.24;81.16;97114.09;5012387;28;20397;-61
2020/12/30 03:39:39;;;;;;;5.57;3.50;;;;;;;2.17;81.30;97105.72;4993203;28;20484;-61
2020/12/30 03:42:06;;;;;;;6.13;3.70;;;;;;;2.22;81.90;97105.69;4993296;28;20034;-61
2020/12/30 03:44:33;;;;;;;6.50;3.90;;;;;;;2.26;81.93;97110.69;4993999;28;20022;-62
2020/12/30 03:46:59;;;;;;;4.83;3.33;;;;;;;2.23;81.77;97117.47;4994141;28;20038;-62
2020/12/30 03:49:25;;;;;;;6.47;3.23;;;;;;;2.24;82.03;97124.22;5003278;28;20352;-61
2020/12/30 03:51:50;;;;;;;4.83;4.27;;;;;;;2.28;81.58;97111.53;5006470;28;20031;-62
2020/12/30 03:54:15;;;;;;;6.60;3.70;;;;;;;2.32;81.04;97121.59;4991825;28;20022;-61
2020/12/30 03:56:41;;;;;;;5.70;4.03;;;;;;;2.28;81.27;97126.69;4992757;28;20029;-61
2020/12/30 03:59:06;;;;;;;5.93;4.10;;;;;;;2.19;81.84;97131.00;4994323;28;20481;-62
2020/12/30 04:01:32;;;;;;;4.60;3.47;;;;;;;2.14;81.97;97125.16;4992906;28;20446;-61
2020/12/30 04:03:57;;;;;;;6.10;4.47;;;;;;;2.12;82.10;97134.47;4994677;28;20075;-62
2020/12/30 04:06:23;;;;;;;5.60;3.97;;;;;;;2.11;82.36;97130.25;4993708;28;20486;-62
2020/12/30 04:08:48;;;;;;;6.63;4.13;;;;;;;2.20;82.04;97140.28;5002580;28;20030;-62
2020/12/30 04:11:13;;;;;;;4.70;3.57;;;;;;;2.24;82.32;97152.88;4993412;28;20045;-62
2020/12/30 04:13:39;;;;;;;4.43;3.67;;;;;;;2.31;81.58;97151.09;4992656;28;20030;-62
2020/12/30 04:16:04;;;;;;;6.20;4.47;;;;;;;2.40;81.44;97155.22;4993704;28;20446;-62
2020/12/30 04:18:30;;;;;;;5.10;4.07;;;;;;;2.37;81.26;97156.09;4991251;28;20034;-62
2020/12/30 04:20:55;;;;;;;7.07;4.23;;;;;;;2.33;81.89;97154.47;5008752;28;20113;-62
2020/12/30 04:23:21;;;;;;;5.53;4.17;;;;;;;2.37;81.87;97160.31;5009554;28;20045;-61
2020/12/30 04:25:48;;;;;;;5.27;3.87;;;;;;;2.37;81.37;97152.75;5009682;28;20473;-62
2020/12/30 04:28:17;;;;;;;7.03;3.20;;;;;;;2.40;81.18;97148.47;4992890;28;20034;-62
2020/12/30 04:30:43;;;;;;;5.43;3.20;;;;;;;2.49;80.27;97145.00;5012591;28;20038;-62
2020/12/30 04:33:11;;;;;;;6.17;2.90;;;;;;;2.56;80.35;97144.91;5012185;28;20046;-62
2020/12/30 04:35:37;;;;;;;3.00;2.60;;;;;;;2.53;80.39;97144.13;5012721;28;20034;-62
2020/12/30 04:38:04;;;;;;;4.37;2.97;;;;;;;2.41;80.42;97140.03;5012270;28;20490;-63
2020/12/30 04:40:29;;;;;;;4.77;3.37;;;;;;;2.44;80.94;97150.13;5013139;28;20033;-63
2020/12/30 04:42:58;;;;;;;6.43;3.37;;;;;;;2.52;80.50;97153.41;5012414;28;20045;-62
2020/12/30 04:45:25;;;;;;;4.27;3.47;;;;;;;2.54;80.57;97153.41;5012346;28;20071;-62
2020/12/30 04:47:53;;;;;;;5.30;3.60;;;;;;;2.51;79.88;97154.25;5012036;28;20041;-62
2020/12/30 04:50:18;;;;;;;4.60;3.23;;;;;;;2.41;80.04;97150.16;5012363;28;20167;-62
2020/12/30 04:52:44;;;;;;;7.10;3.47;;;;;;;2.37;80.27;97160.31;5012468;28;20038;-62
2020/12/30 04:55:11;;;;;;;11.20;5.93;;;;;;;2.44;80.30;97162.75;5000141;28;20082;-62
2020/12/30 04:57:58;;;;;;;6.43;4.73;;;;;;;2.49;80.39;97160.19;5008206;28;20026;-62
2020/12/30 05:00:25;;;;;;;7.30;4.80;;;;;;;2.43;80.65;97157.72;5000563;28;20144;-62
2020/12/30 05:02:52;;;;;;;13.27;6.33;;;;;;;2.46;80.42;97162.75;5004560;28;20110;-62
2020/12/30 05:05:18;;;;;;;8.87;4.83;;;;;;;2.37;80.76;97167.91;5012330;28;20053;-62
2020/12/30 05:07:45;;;;;;;4.57;3.30;;;;;;;2.39;81.00;97183.88;5008172;28;20044;-62
2020/12/30 05:10:14;;;;;;;4.70;3.27;;;;;;;2.38;81.42;97178.00;5013055;28;20075;-62
2020/12/30 05:12:39;;;;;;;8.60;7.33;;;;;;;2.39;81.19;97163.66;5005421;28;20030;-62
2020/12/30 05:15:05;;;;;;;7.20;5.50;;;;;;;2.42;80.97;97166.97;4992900;28;20057;-62
2020/12/30 05:17:33;;;;;;;5.33;4.37;;;;;;;2.47;81.59;97175.38;4991860;28;20479;-62
2020/12/30 05:19:59;;;;;;;5.47;3.47;;;;;;;2.45;81.90;97177.09;5000181;28;20029;-62
2020/12/30 05:22:24;;;;;;;6.67;3.20;;;;;;;2.45;81.54;97172.03;5010196;28;20125;-62
2020/12/30 05:24:50;;;;;;;4.57;3.77;;;;;;;2.44;81.20;97172.03;5012710;28;20022;-62
2020/12/30 05:27:17;;;;;;;5.80;3.50;;;;;;;2.39;81.31;97169.56;5011704;28;20037;-62
2020/12/30 05:29:52;;;;;;;9.37;5.67;;;;;;;2.41;81.68;97180.50;4993466;28;20109;-62
2020/12/30 05:32:18;;;;;;;8.07;5.18;;;;;;;2.34;81.53;97178.88;4991778;28;20095;-62
2020/12/30 05:34:44;;;;;;;7.33;5.00;;;;;;;2.31;81.32;97181.44;5011092;28;20328;-62
2020/12/30 05:37:12;;;;;;;5.53;4.30;;;;;;;2.28;81.82;97184.84;5012099;28;20028;-62
2020/12/30 05:39:37;;;;;;;6.60;4.63;;;;;;;2.17;82.03;97184.09;5012052;28;20095;-62
2020/12/30 05:42:17;;;;;;;8.17;4.70;;;;;;;2.21;81.99;97188.28;5012091;28;20029;-62
2020/12/30 05:44:45;;;;;;;4.53;3.50;;;;;;;2.20;82.56;97198.41;5011814;28;20018;-62
2020/12/30 05:47:14;;;;;;;5.30;3.47;;;;;;;2.19;82.53;97201.78;5011737;28;20533;-62
2020/12/30 05:49:40;;;;;;;4.77;3.70;;;;;;;2.10;82.86;97211.97;5000955;28;20026;-61
2020/12/30 05:52:12;;;;;;;6.67;3.87;;;;;;;2.15;82.32;97212.78;5011560;28;20350;-61
2020/12/30 05:54:38;;;;;;;4.43;2.93;;;;;;;2.11;82.60;97211.13;5011289;28;20574;-61
2020/12/30 05:57:30;;;;;;;5.33;3.77;;;;;;;2.16;82.58;97206.88;5011731;28;20022;-61
2020/12/30 06:00:04;;;;;;;5.30;2.83;;;;;;;2.09;82.74;97205.22;4995442;28;20370;-62
2020/12/30 06:02:31;;;;;;;5.70;3.90;;;;;;;1.98;83.06;97212.94;5010622;28;20034;-62
2020/12/30 06:05:12;;;;;;;8.30;4.80;;;;;;;1.98;83.81;97222.19;5010850;28;20089;-61
2020/12/30 06:07:39;;;;;;;6.47;4.40;;;;;;;1.95;83.21;97209.59;4992344;28;20033;-62
2020/12/30 06:10:08;;;;;;;7.50;4.77;;;;;;;1.98;83.28;97228.09;4991616;28;20022;-61
2020/12/30 06:12:40;;;;;;;6.10;4.10;;;;;;;2.00;82.86;97228.06;4991746;28;20447;-61
2020/12/30 06:15:05;;;;;;;5.90;3.70;;;;;;;1.95;82.52;97230.66;4996339;28;20018;-61
2020/12/30 06:17:31;;;;;;;8.23;4.53;;;;;;;1.94;83.08;97230.66;5011737;28;20034;-61
2020/12/30 06:19:58;;;;;;;8.67;4.60;;;;;;;1.88;83.22;97230.69;5010496;28;20120;-61
2020/12/30 06:22:24;;;;;;;10.00;4.53;;;;;;;1.87;82.78;97239.13;5011623;28;20454;-61
2020/12/30 06:24:54;;;;;;;5.73;4.90;;;;;;;1.94;82.89;97236.53;5010361;28;20021;-61
2020/12/30 06:27:31;;;;;;;7.17;4.37;;;;;;;1.89;83.17;97234.88;5011866;28;20146;-61
2020/12/30 06:29:57;;;;;;;7.10;4.40;;;;;;;1.88;82.74;97243.31;5009554;28;20442;-61
2020/12/30 06:32:27;;;;;;;5.87;4.50;;;;;;;1.86;82.93;97257.66;5011379;28;20022;-61
2020/12/30 06:34:53;;;;;;;7.80;5.13;;;;;;;1.74;83.31;97256.06;5009488;28;20030;-62
2020/12/30 06:37:25;;;;;;;6.83;4.67;;;;;;;1.77;83.28;97258.56;4991694;28;20432;-62
2020/12/30 06:40:17;;;;;;;9.40;5.90;;;;;;;1.87;83.18;97261.88;4991106;28;20054;-61
2020/12/30 06:42:44;;;;;;;5.83;5.10;;;;;;;1.88;83.56;97261.00;4990357;28;20026;-62
2020/12/30 06:45:14;;;;;;;6.43;5.00;;;;;;;1.94;83.40;97258.44;4991733;28;20147;-62
2020/12/30 06:48:02;;;;;;;6.73;4.90;;;;;;;1.95;82.27;97255.06;5011562;28;20037;-61
2020/12/30 06:50:28;;;;;;;6.63;4.43;;;;;;;1.91;82.64;97255.94;5007156;28;20483;-62
2020/12/30 06:52:54;;;;;;;7.53;4.90;;;;;;;1.84;82.53;97250.09;4990511;28;20164;-61
2020/12/30 06:55:45;;;;;;;7.63;5.50;;;;;;;1.97;82.08;97261.78;4989913;28;20022;-61
2020/12/30 06:58:45;;;;;;;7.80;5.47;;;;;;;2.06;82.10;97273.50;5006699;28;20033;-61
2020/12/30 07:01:21;;;;;;;9.60;6.23;;;;;;;2.06;81.46;97265.94;5008250;28;20044;-61
2020/12/30 07:03:48;;;;;;;7.63;5.37;;;;;;;2.13;81.63;97262.50;5009210;28;20028;-61
2020/12/30 07:06:35;;;;;;;7.73;5.27;;;;;;;2.19;81.54;97259.94;5010422;28;20400;-61
2020/12/30 07:09:05;;;;;;;9.33;6.43;;;;;;;2.16;81.14;97265.03;5010067;28;20466;-62
2020/12/30 07:11:47;;;;;;;7.67;5.43;;;;;;;2.07;81.30;97272.66;5009757;28;20033;-62
2020/12/30 07:14:30;;;;;;;8.60;5.90;;;;;;;2.12;81.06;97281.06;5011596;28;20022;-61
2020/12/30 07:16:56;;;;;;;10.37;6.07;;;;;;;2.11;81.11;97279.38;4997379;28;20034;-61
2020/12/30 07:19:24;;;;;;;8.97;5.30;;;;;;;2.18;81.31;97283.53;5016711;28;20040;-61
2020/12/30 07:21:52;;;;;;;8.20;5.87;;;;;;;2.27;81.04;97285.97;5028290;28;20026;-62
2020/12/30 07:24:31;;;;;;;9.23;6.47;;;;;;;2.32;81.54;97289.31;5027977;28;20014;-61
2020/12/30 07:26:59;;;;;;;8.63;5.30;;;;;;;2.33;81.21;97285.94;5037784;28;20022;-61
2020/12/30 07:29:26;;;;;;;12.10;7.57;;;;;;;2.36;80.79;97285.91;5102827;28;20089;-61
2020/12/30 07:32:10;;;;;;;15.73;11.30;;;;;;;2.48;81.19;97290.88;5095052;28;20109;-61
2020/12/30 07:34:41;;;;;;;19.27;12.60;;;;;;;2.55;81.02;97289.94;4999660;28;20037;-61
2020/12/30 07:37:07;;;;;;;10.97;7.53;;;;;;;2.62;80.76;97288.22;5023476;28;20030;-61
2020/12/30 07:39:44;;;;;;;12.97;7.47;;;;;;;2.76;80.14;97288.91;4989910;28;20030;-61
2020/12/30 07:42:15;;;;;;;10.80;6.43;;;;;;;2.84;79.65;97296.44;5082950;28;20066;-61
2020/12/30 07:44:44;;;;;;;9.70;6.90;;;;;;;2.93;79.36;97299.69;5005218;28;20555;-61
2020/12/30 07:47:11;;;;;;;13.43;7.60;;;;;;;2.99;79.30;97304.69;5009056;28;20060;-61
2020/12/30 07:49:36;;;;;;;10.27;7.33;;;;;;;3.00;78.50;97311.44;5007708;28;20026;-61
2020/12/30 07:52:04;;;;;;;13.43;9.27;;;;;;;3.01;78.12;97309.75;5013581;28;20026;-61
2020/12/30 07:54:30;;;;;;;17.77;11.40;;;;;;;3.02;78.84;97314.78;4993191;28;20033;-61
2020/12/30 07:57:13;;;;;;;17.20;11.50;;;;;;;3.01;79.51;97319.88;4993391;28;20030;-61
2020/12/30 07:59:40;;;;;;;16.60;11.37;;;;;;;3.04;79.82;97317.31;4994409;28;20367;-61
2020/12/30 08:02:10;;;;;;;19.93;13.07;;;;;;;3.14;79.90;97311.31;4992483;28;20414;-61
2020/12/30 08:04:36;;;;;;;19.50;12.87;;;;;;;3.18;79.57;97318.00;4992320;28;20443;-61
2020/12/30 08:07:03;;;;;;;18.63;11.37;;;;;;;3.27;79.42;97309.47;4993311;28;20029;-62
2020/12/30 08:09:31;;;;;;;19.63;12.00;;;;;;;3.37;79.13;97313.56;5012395;28;20473;-61
2020/12/30 08:12:04;;;;;;;17.77;11.70;;;;;;;3.41;79.41;97312.66;5012737;28;20037;-60
2020/12/30 08:14:32;;;;;;;19.17;12.10;;;;;;;3.47;79.33;97318.50;5001442;28;20061;-59
2020/12/30 08:17:00;;;;;;;19.57;12.87;;;;;;;3.57;78.79;97324.28;5000812;28;20026;-61
2020/12/30 08:19:43;;;;;;;20.20;12.67;;;;;;;3.66;78.68;97309.81;4996768;28;20026;-60
2020/12/30 08:22:18;;;;;;;14.83;11.50;;;;;;;3.85;78.25;97320.53;5012095;28;20030;-60
2020/12/30 08:24:54;;;;;;;18.20;12.73;;;;;;;3.92;77.86;97319.59;4997794;28;20064;-60
2020/12/30 08:27:23;;;;;;;20.20;12.93;;;;;;;3.96;77.78;97325.44;5012178;28;20026;-60
2020/12/30 08:29:48;;;;;;;16.17;12.33;;;;;;;3.94;77.76;97324.66;5003902;28;20082;-59
2020/12/30 08:32:23;;;;;;;16.43;11.97;;;;;;;4.00;77.96;97325.41;5047066;28;20031;-61
2020/12/30 08:35:08;;;;;;;21.20;12.63;;;;;;;4.00;77.35;97322.00;5053974;28;20038;-61
2020/12/30 08:37:41;;;;;;;18.13;13.20;;;;;;;4.01;77.64;97323.69;4993693;28;20026;-61
2020/12/30 08:40:24;;;;;;;18.17;13.00;;;;;;;4.05;77.55;97328.72;4992052;28;20045;-61
2020/12/30 08:42:52;;;;;;;16.40;11.57;;;;;;;4.21;76.91;97334.38;4992299;28;20091;-61
2020/12/30 08:45:31;;;;;;;17.07;11.93;;;;;;;4.39;75.92;97340.88;4992216;28;20030;-61
2020/12/30 08:48:11;;;;;;;18.70;12.03;;;;;;;4.45;75.84;97340.81;4992983;28;20030;-62
2020/12/30 08:50:37;;;;;;;16.30;11.50;;;;;;;4.49;75.20;97350.03;5007126;28;20022;-62
2020/12/30 08:53:02;;;;;;;19.53;12.40;;;;;;;4.44;74.92;97351.81;4993085;28;20101;-61
2020/12/30 08:55:28;;;;;;;16.83;11.60;;;;;;;4.54;75.25;97348.28;4990547;28;20023;-62
2020/12/30 08:57:53;;;;;;;15.07;11.30;;;;;;;4.51;75.28;97351.69;5000333;28;20026;-62
2020/12/30 09:00:23;;;;;;;17.47;12.13;;;;;;;4.64;75.20;97359.09;5012251;28;20026;-62
2020/12/30 09:02:53;;;;;;;17.17;11.73;;;;;;;4.63;75.08;97359.94;5012153;28;20021;-61
2020/12/30 09:05:54;;;;;;;15.33;12.40;;;;;;;4.69;74.27;97363.25;5010475;28;20033;-62
2020/12/30 09:08:25;;;;;;;17.53;11.37;;;;;;;4.76;74.88;97361.44;4993295;28;20408;-61
2020/12/30 09:10:51;;;;;;;18.83;11.73;;;;;;;4.80;74.61;97363.91;4992812;28;20087;-61
2020/12/30 09:13:21;;;;;;;16.07;12.43;;;;;;;4.93;74.23;97364.53;4994443;28;20354;-61
2020/12/30 09:15:54;;;;;;;14.13;11.23;;;;;;;4.88;74.83;97367.13;4999379;28;20025;-60
2020/12/30 09:18:23;;;;;;;17.43;12.93;;;;;;;4.83;75.03;97363.88;5008738;28;20082;-60
2020/12/30 09:20:49;;;;;;;22.93;15.97;;;;;;;5.00;74.99;97369.50;5005630;28;20026;-61
2020/12/30 09:23:15;;;;;;;17.60;12.80;;;;;;;4.94;74.84;97371.28;5009142;28;20045;-62
2020/12/30 09:25:41;;;;;;;15.93;11.63;;;;;;;4.96;74.90;97372.97;5010560;28;20029;-61
2020/12/30 09:28:16;;;;;;;18.53;12.23;;;;;;;5.04;75.18;97372.81;5003644;28;20086;-61
2020/12/30 09:30:43;;;;;;;16.77;11.95;;;;;;;4.99;75.10;97379.66;5010512;28;20033;-61
2020/12/30 09:33:13;;;;;;;15.07;10.40;;;;;;;5.01;74.60;97377.94;5040379;28;20057;-61
2020/12/30 09:35:40;;;;;;;13.47;10.53;;;;;;;4.94;74.72;97379.75;5011649;28;20078;-61
2020/12/30 09:38:05;;;;;;;14.40;10.90;;;;;;;5.00;74.73;97378.81;5012240;28;20057;-61
2020/12/30 09:40:39;;;;;;;16.07;11.47;;;;;;;4.97;75.18;97377.16;5011762;28;20113;-61
2020/12/30 09:43:25;;;;;;;13.80;10.53;;;;;;;4.94;75.16;97383.97;5008561;28;20026;-61
2020/12/30 09:45:57;;;;;;;;;;;;;;;4.94;74.78;97378.91;5009383;28;20041;-61
2020/12/30 09:48:22;;;;;;;16.60;10.83;;;;;;;4.89;75.49;97380.69;5011865;28;19932;-61
2020/12/30 09:50:49;;;;;;;17.73;12.07;;;;;;;4.98;76.56;97385.59;5010585;28;20499;-61
2020/12/30 09:53:15;;;;;;;34.87;21.97;;;;;;;4.91;76.79;97389.13;5003523;28;20026;-61
2020/12/30 09:55:48;;;;;;;29.00;19.03;;;;;;;5.02;77.06;97397.38;5013039;28;20094;-61
2020/12/30 09:58:14;;;;;;;23.60;14.50;;;;;;;4.96;77.05;97398.34;5014024;28;20029;-61
2020/12/30 10:00:40;;;;;;;20.67;12.33;;;;;;;4.97;76.79;97394.94;5010851;28;20028;-61
2020/12/30 10:03:06;;;;;;;20.17;13.50;;;;;;;4.86;77.68;97401.06;5012904;28;20086;-61
2020/12/30 10:05:32;;;;;;;23.73;15.53;;;;;;;4.69;78.63;97395.41;5010845;28;20404;-62
2020/12/30 10:07:57;;;;;;;22.20;16.70;;;;;;;4.55;79.18;97396.44;4992717;28;20452;-61
2020/12/30 10:10:23;;;;;;;27.60;17.57;;;;;;;4.51;79.72;97399.06;4992201;28;20112;-61
2020/12/30 10:12:48;;;;;;;28.63;16.43;;;;;;;4.49;80.49;97396.56;4992250;28;20369;-61
2020/12/30 10:15:14;;;;;;;27.60;18.10;;;;;;;4.38;81.09;97400.94;4991190;28;20461;-61
2020/12/30 10:17:40;;;;;;;15.07;9.20;;;;;;;4.34;80.94;97398.47;5006516;28;20036;-61
2020/12/30 10:20:10;;;;;;;23.33;12.17;;;;;;;4.37;80.99;97404.31;5012178;28;20086;-61
2020/12/30 10:22:37;;;;;;;9.90;6.33;;;;;;;4.39;80.76;97402.63;5010763;28;20025;-61
2020/12/30 10:25:04;;;;;;;8.70;5.27;;;;;;;4.45;80.56;97400.00;5011400;28;20226;-61
2020/12/30 10:27:29;;;;;;;7.73;4.77;;;;;;;4.44;81.80;97400.00;5004143;28;20034;-61
2020/12/30 10:29:55;;;;;;;4.07;2.60;;;;;;;4.31;82.45;97403.59;4992509;28;20461;-61
2020/12/30 10:32:20;;;;;;;3.43;1.63;;;;;;;4.17;83.59;97398.69;5047407;28;20038;-62
2020/12/30 10:34:46;;;;;;;1.87;1.27;;;;;;;4.20;82.61;97400.38;5114611;28;20016;-62
2020/12/30 10:37:12;;;;;;;1.60;1.20;;;;;;;4.09;82.94;97405.56;5042377;28;20046;-62
2020/12/30 10:39:37;;;;;;;5.03;2.80;;;;;;;4.07;83.54;97404.78;5016404;28;20041;-62
2020/12/30 10:42:04;;;;;;;2.83;1.27;;;;;;;4.02;84.18;97409.06;5005556;28;20060;-61
2020/12/30 10:44:31;;;;;;;2.60;1.20;;;;;;;3.95;84.22;97397.28;4998812;28;20362;-61
2020/12/30 10:46:57;;;;;;;2.40;1.20;;;;;;;4.02;83.84;97394.69;4991415;28;20386;-61
2020/12/30 10:49:23;;;;;;;2.27;1.87;;;;;;;3.92;84.49;97389.75;5002981;28;20044;-61
2020/12/30 10:51:50;;;;;;;5.47;1.93;;;;;;;4.00;84.87;97385.41;5001538;28;20038;-61
2020/12/30 10:54:16;;;;;;;4.20;1.50;;;;;;;3.89;84.55;97397.38;4990620;28;20134;-62
2020/12/30 10:56:48;;;;;;;4.00;1.50;;;;;;;3.90;83.52;97392.31;4993001;28;20450;-61
2020/12/30 10:59:15;;;;;;;1.53;1.10;;;;;;;3.94;83.85;97395.63;4995182;28;20362;-61
2020/12/30 11:01:40;;;;;;;2.37;0.80;;;;;;;3.90;84.08;97394.00;5005337;28;20121;-62
2020/12/30 11:04:06;;;;;;;2.03;1.03;;;;;;;3.89;83.67;97390.63;5009125;28;20117;-61
2020/12/30 11:06:32;;;;;;;3.00;1.40;;;;;;;3.90;84.51;97399.91;5001097;28;20045;-62
2020/12/30 11:08:57;;;;;;;2.80;1.10;;;;;;;3.97;83.60;97395.59;4991141;28;20113;-61
2020/12/30 11:11:22;;;;;;;1.53;1.00;;;;;;;4.01;83.63;97398.06;5006737;28;20451;-61
2020/12/30 11:13:48;;;;;;;2.53;1.23;;;;;;;4.02;83.40;97394.69;5004536;28;20034;-60
2020/12/30 11:16:13;;;;;;;3.30;2.00;;;;;;;4.13;83.72;97392.00;5001235;28;20030;-61
2020/12/30 11:18:39;;;;;;;2.47;1.40;;;;;;;4.09;84.05;97385.28;5007146;28;20042;-61
2020/12/30 11:21:04;;;;;;;3.50;1.20;;;;;;;4.09;84.64;97385.28;4998535;28;20018;-62
2020/12/30 11:23:30;;;;;;;2.07;1.20;;;;;;;4.08;83.87;97393.75;5003209;28;20042;-61
2020/12/30 11:25:55;;;;;;;4.03;1.37;;;;;;;4.09;83.60;97386.13;5005265;28;20034;-62
2020/12/30 11:28:21;;;;;;;2.63;1.20;;;;;;;4.24;83.91;97386.78;4992987;28;20034;-62
2020/12/30 11:30:46;;;;;;;2.73;1.47;;;;;;;4.17;83.73;97388.56;4993537;28;20851;-61
2020/12/30 11:33:12;;;;;;;1.50;1.10;;;;;;;4.27;84.37;97389.28;5094360;28;20144;-62
2020/12/30 11:35:39;;;;;;;2.57;1.47;;;;;;;4.21;84.68;97396.94;5079954;28;20513;-62
2020/12/30 11:38:04;;;;;;;1.60;1.30;;;;;;;4.37;84.48;97395.91;5014421;28;20446;-62
2020/12/30 11:40:30;;;;;;;4.13;1.80;;;;;;;4.30;84.95;97400.22;5008408;28;20037;-62
2020/12/30 11:42:55;;;;;;;5.63;1.93;;;;;;;4.38;84.91;97397.56;5006990;28;20042;-62
2020/12/30 11:45:20;;;;;;;4.10;1.97;;;;;;;4.34;85.62;97401.00;5007067;28;20037;-61